createdAt,value
2022-08-30T05:55:05.577Z,70.66
2022-08-30T05:56:09.040Z,68.15
2022-08-30T05:57:06.334Z,66.67
2022-08-30T05:58:06.381Z,64.91
2022-08-30T05:59:06.365Z,65.31
2022-08-30T06:00:06.336Z,64.84
2022-08-30T06:01:06.311Z,65.88
2022-08-30T06:02:06.383Z,66.78
2022-08-30T06:03:06.313Z,65.11
2022-08-30T06:04:07.053Z,64.25
2022-08-30T06:05:06.307Z,62.25
2022-08-30T06:06:06.266Z,60.62
2022-08-30T06:07:06.263Z,58.86
2022-08-30T06:08:06.223Z,58.14
2022-08-30T06:09:06.306Z,58.73
2022-08-30T06:10:06.232Z,58.86
2022-08-30T06:11:06.182Z,58.73
2022-08-30T06:12:06.205Z,58.21
2022-08-30T06:13:06.166Z,57.28
2022-08-30T06:14:06.220Z,58.41
2022-08-30T06:15:06.152Z,57.84
2022-08-30T06:16:06.202Z,58.69
2022-08-30T06:17:06.123Z,61.35
2022-08-30T06:18:06.142Z,63.87
2022-08-30T06:19:06.111Z,64.22
2022-08-30T06:20:06.129Z,63.24
2022-08-30T06:21:06.083Z,65.07
2022-08-30T06:22:06.097Z,67.88
2022-08-30T06:23:06.042Z,68.08
2022-08-30T06:24:06.050Z,68.05
2022-08-30T06:25:06.041Z,65.88
2022-08-30T06:26:06.093Z,65.57
2022-08-30T06:27:06.035Z,67.24
2022-08-30T06:28:05.996Z,66.67
2022-08-30T06:29:05.995Z,63.60
2022-08-30T06:30:06.044Z,63.64
2022-08-30T06:31:06.013Z,62.48
2022-08-30T06:32:05.971Z,61.28
2022-08-30T06:51:27.708Z,52.07
2022-08-30T06:52:27.994Z,51.60
2022-08-30T06:53:27.584Z,52.09
2022-08-30T06:54:27.659Z,51.75
2022-08-30T06:55:27.487Z,52.44
2022-08-30T06:56:28.634Z,52.04
2022-08-30T06:57:28.584Z,51.45
2022-08-30T06:58:28.577Z,53.09
2022-08-30T06:59:28.577Z,53.78
2022-08-30T07:00:28.572Z,52.69
2022-08-30T07:03:38.371Z,53.83
2022-08-30T07:04:37.532Z,55.76
2022-08-30T07:05:37.600Z,56.56
2022-08-30T07:06:37.494Z,58.86
2022-08-30T07:07:37.427Z,60.75
2022-08-30T07:08:37.434Z,63.45
2022-08-30T07:09:37.416Z,65.18
2022-08-30T07:10:37.384Z,65.28
2022-08-30T07:11:37.383Z,66.99
2022-08-30T07:12:37.413Z,66.18
2022-08-30T07:13:37.359Z,65.81
2022-08-30T07:14:37.398Z,66.55
2022-08-30T07:15:38.605Z,64.54
2022-08-30T07:16:38.452Z,65.01
2022-08-30T07:17:38.456Z,68.52
2022-08-30T07:18:38.572Z,69.22
2022-08-30T07:19:38.428Z,69.12
2022-08-30T07:20:40.603Z,67.55
2022-08-30T07:21:38.411Z,68.15
2022-08-30T07:22:38.449Z,64.28
2022-08-30T07:23:38.366Z,61.19
2022-08-30T07:24:38.342Z,64.55
2022-08-30T07:25:38.344Z,63.39
2022-08-30T07:26:38.350Z,65.22
2022-08-30T07:27:38.352Z,62.70
2022-08-30T07:28:38.306Z,59.12
2022-08-30T07:29:38.301Z,55.50
2022-08-30T07:30:38.303Z,53.23
2022-08-30T07:31:38.286Z,51.57
2022-08-30T07:32:38.274Z,51.87
2022-08-30T07:33:38.267Z,49.15
2022-08-30T07:34:38.251Z,51.45
2022-08-30T07:35:38.228Z,53.01
2022-08-30T07:36:38.207Z,53.19
2022-08-30T07:37:38.213Z,54.85
2022-08-30T07:38:38.212Z,51.60
2022-08-30T07:39:44.493Z,50.18
2022-08-30T07:40:38.244Z,50.76
2022-08-30T07:41:38.167Z,49.12
2022-08-30T07:42:38.160Z,49.76
2022-08-30T07:43:38.159Z,51.45
2022-08-30T07:44:38.122Z,52.09
2022-08-30T07:45:38.122Z,51.87
2022-08-30T07:46:38.149Z,53.81
2022-08-30T07:47:38.113Z,56.51
2022-08-30T07:48:38.136Z,55.38
2022-08-30T07:49:38.149Z,54.56
2022-08-30T07:50:38.079Z,53.98
2022-08-30T07:51:38.051Z,53.71
2022-08-30T07:53:38.125Z,57.18
2022-08-30T07:54:38.036Z,57.76
2022-08-30T07:55:38.030Z,57.24
2022-08-30T07:56:37.990Z,56.12
2022-08-30T07:57:38.013Z,54.50
2022-08-30T07:58:37.979Z,54.50
2022-08-30T07:59:38.011Z,52.26
2022-08-30T08:00:38.023Z,57.26
2022-08-30T08:01:38.035Z,58.71
2022-08-30T08:02:37.982Z,62.30
2022-08-30T08:03:37.927Z,57.97
2022-08-30T08:04:37.938Z,55.63
2022-08-30T08:05:37.944Z,54.28
2022-08-30T08:06:37.901Z,54.11
2022-08-30T08:07:37.879Z,57.86
2022-08-30T08:08:37.894Z,58.61
2022-08-30T08:09:37.893Z,58.94
2022-08-30T08:10:37.860Z,58.49
2022-08-30T08:11:37.851Z,60.92
2022-08-30T08:12:37.835Z,58.94
2022-08-30T08:13:50.636Z,58.73
2022-08-30T08:14:37.830Z,58.76
2022-08-30T08:15:37.860Z,58.26
2022-08-30T08:16:37.804Z,58.54
2022-08-30T08:17:37.785Z,57.76
2022-08-30T08:18:37.783Z,58.72
2022-08-30T08:19:37.849Z,57.89
2022-08-30T08:20:37.762Z,57.89
2022-08-30T08:21:37.734Z,57.93
2022-08-30T08:22:40.037Z,58.24
2022-08-30T08:23:38.743Z,56.24
2022-08-30T08:24:37.758Z,56.71
2022-08-30T08:25:37.671Z,56.31
2022-08-30T08:26:37.711Z,56.79
2022-08-30T08:27:37.649Z,57.76
2022-08-30T08:28:37.645Z,58.34
2022-08-30T08:29:37.668Z,55.14
2022-08-30T08:30:37.653Z,54.71
2022-08-30T08:31:37.698Z,54.37
2022-08-30T08:32:37.638Z,54.86
2022-08-30T08:33:37.581Z,54.77
2022-08-30T08:34:37.719Z,55.92
2022-08-30T08:35:37.726Z,55.66
2022-08-30T08:36:37.808Z,54.79
2022-08-30T08:37:37.641Z,55.66
2022-08-30T08:38:37.852Z,53.27
2022-08-30T08:39:37.522Z,53.17
2022-08-30T08:40:37.637Z,54.66
2022-08-30T08:41:37.528Z,52.92
2022-08-30T08:42:37.489Z,52.22
2022-08-30T08:43:37.497Z,51.79
2022-08-30T08:44:37.497Z,50.20
2022-08-30T08:45:37.465Z,51.70
2022-08-30T08:46:37.702Z,53.16
2022-08-30T08:47:37.436Z,52.09
2022-08-30T08:48:58.461Z,51.79
2022-08-30T08:49:37.418Z,50.70
2022-08-30T08:50:37.422Z,52.81
2022-08-30T08:51:37.405Z,52.72
2022-08-30T08:52:37.405Z,52.69
2022-08-30T08:53:50.167Z,52.72
2022-08-30T08:54:39.361Z,52.47
2022-08-30T08:55:37.560Z,52.97
2022-08-30T08:56:37.349Z,50.33
2022-08-30T08:57:37.340Z,50.95
2022-08-30T08:58:37.311Z,51.52
2022-08-30T08:59:37.314Z,50.23
2022-08-30T09:00:37.304Z,50.01
2022-08-30T09:01:37.320Z,49.55
2022-08-30T09:02:37.273Z,50.78
2022-08-30T09:03:37.254Z,52.04
2022-08-30T09:04:37.269Z,51.03
2022-08-30T09:05:37.224Z,49.68
2022-08-30T09:06:37.254Z,49.61
2022-08-30T09:07:37.213Z,49.78
2022-08-30T09:08:37.195Z,49.58
2022-08-30T09:09:37.197Z,49.74
2022-08-30T09:10:49.773Z,49.86
2022-08-30T09:11:37.183Z,49.07
2022-08-30T09:12:37.164Z,49.02
2022-08-30T09:13:37.124Z,46.56
2022-08-30T09:14:38.877Z,48.69
2022-08-30T09:15:37.146Z,49.56
2022-08-30T09:16:37.154Z,49.51
2022-08-30T09:17:37.098Z,50.10
2022-08-30T09:18:37.081Z,50.15
2022-08-30T09:19:37.069Z,51.27
2022-08-30T09:20:37.093Z,50.67
2022-08-30T09:21:37.096Z,51.95
2022-08-30T09:22:37.049Z,52.32
2022-08-30T09:23:37.013Z,53.31
2022-08-30T09:24:37.044Z,52.67
2022-08-30T09:25:41.646Z,50.93
2022-08-30T09:26:37.013Z,50.88
2022-08-30T09:27:37.041Z,50.65
2022-08-30T09:28:36.999Z,49.74
2022-08-30T09:29:36.957Z,50.03
2022-08-30T09:30:37.009Z,49.54
2022-08-30T09:31:36.969Z,49.66
2022-08-30T09:32:36.956Z,49.96
2022-08-30T09:33:36.973Z,50.73
2022-08-30T09:34:36.906Z,50.95
2022-08-30T09:35:36.917Z,51.59
2022-08-30T09:36:36.922Z,52.25
2022-08-30T09:37:36.907Z,51.65
2022-08-30T09:38:36.892Z,52.00
2022-08-30T09:39:36.863Z,51.42
2022-08-30T09:40:36.900Z,51.57
2022-08-30T09:41:37.350Z,51.95
2022-08-30T09:42:37.911Z,52.37
2022-08-30T09:43:36.866Z,54.16
2022-08-30T09:44:36.825Z,53.36
2022-08-30T09:45:36.800Z,53.44
2022-08-30T09:46:36.838Z,53.17
2022-08-30T09:47:36.839Z,52.44
2022-08-30T09:48:36.779Z,50.97
2022-08-30T09:49:36.755Z,52.44
2022-08-30T09:50:37.198Z,50.15
2022-08-30T09:51:36.736Z,50.15
2022-08-30T09:52:36.765Z,51.12
2022-08-30T09:53:36.745Z,53.22
2022-08-30T09:54:36.738Z,53.04
2022-08-30T09:55:36.685Z,54.51
2022-08-30T09:56:36.741Z,52.84
2022-08-30T09:57:36.675Z,51.20
2022-08-30T09:58:36.674Z,50.16
2022-08-30T09:59:36.644Z,47.23
2022-08-30T10:00:36.664Z,47.63
2022-08-30T10:01:36.657Z,47.11
2022-08-30T10:02:36.633Z,47.61
2022-08-30T10:03:40.736Z,47.23
2022-08-30T10:04:36.579Z,47.13
2022-08-30T10:05:36.767Z,49.56
2022-08-30T10:06:36.637Z,51.40
2022-08-30T10:07:36.586Z,49.80
2022-08-30T10:08:36.589Z,48.94
2022-08-30T10:09:36.583Z,47.35
2022-08-30T10:10:36.548Z,46.42
2022-08-30T10:11:36.540Z,47.50
2022-08-30T10:12:36.506Z,47.86
2022-08-30T10:13:36.550Z,45.16
2022-08-30T10:14:36.673Z,45.14
2022-08-30T10:15:36.703Z,45.21
2022-08-30T10:16:36.907Z,44.46
2022-08-30T10:17:36.601Z,45.38
2022-08-30T10:18:36.735Z,44.56
2022-08-30T10:19:36.653Z,44.92
2022-08-30T10:20:36.478Z,43.29
2022-08-30T10:21:36.465Z,44.50
2022-08-30T10:22:36.406Z,44.46
2022-08-30T10:23:36.393Z,44.15
2022-08-30T10:24:36.442Z,45.07
2022-08-30T10:25:36.392Z,45.89
2022-08-30T10:26:36.345Z,46.19
2022-08-30T10:27:36.341Z,46.08
2022-08-30T10:28:36.410Z,45.07
2022-08-30T10:29:39.499Z,45.86
2022-08-30T10:30:37.425Z,44.90
2022-08-30T10:31:36.543Z,44.64
2022-08-30T10:32:36.280Z,43.06
2022-08-30T10:33:36.326Z,42.98
2022-08-30T10:34:36.282Z,43.70
2022-08-30T10:35:38.963Z,46.83
2022-08-30T10:36:37.027Z,45.76
2022-08-30T10:37:36.279Z,45.94
2022-08-30T10:38:36.210Z,46.07
2022-08-30T10:39:36.255Z,45.30
2022-08-30T10:40:36.378Z,45.84
2022-08-30T10:41:36.250Z,47.10
2022-08-30T10:42:39.926Z,47.47
2022-08-30T10:43:36.177Z,45.84
2022-08-30T10:44:36.239Z,46.48
2022-08-30T10:45:36.886Z,46.44
2022-08-30T10:46:36.152Z,45.96
2022-08-30T10:47:36.134Z,47.05
2022-08-30T10:48:36.164Z,47.45
2022-08-30T10:49:36.119Z,46.86
2022-08-30T10:50:41.173Z,49.13
2022-08-30T10:51:37.096Z,49.68
2022-08-30T10:52:36.109Z,48.07
2022-08-30T10:53:36.052Z,47.42
2022-08-30T10:54:36.051Z,48.64
2022-08-30T10:55:36.064Z,50.93
2022-08-30T10:56:36.035Z,51.00
2022-08-30T10:57:36.055Z,51.89
2022-08-30T10:58:36.000Z,51.70
2022-08-30T10:59:36.000Z,52.00
2022-08-30T11:00:36.023Z,50.45
2022-08-30T11:01:35.989Z,51.54
2022-08-30T11:02:35.971Z,51.42
2022-08-30T11:03:36.034Z,51.47
2022-08-30T11:04:35.961Z,51.30
2022-08-30T11:05:35.992Z,50.10
2022-08-30T11:06:35.917Z,48.84
2022-08-30T11:07:35.908Z,49.83
2022-08-30T11:08:35.926Z,49.88
2022-08-30T11:09:36.076Z,52.29
2022-08-30T11:10:35.932Z,52.92
2022-08-30T11:11:35.886Z,52.44
2022-08-30T11:12:35.879Z,54.16
2022-08-30T11:13:35.855Z,55.39
2022-08-30T11:14:35.851Z,55.51
2022-08-30T11:15:35.838Z,55.34
2022-08-30T11:16:35.880Z,56.57
2022-08-30T11:17:35.807Z,55.57
2022-08-30T11:18:35.815Z,55.17
2022-08-30T11:19:35.811Z,55.84
2022-08-30T11:20:35.801Z,55.04
2022-08-30T11:21:35.817Z,55.71
2022-08-30T11:22:39.027Z,55.09
2022-08-30T11:23:35.762Z,54.04
2022-08-30T11:24:35.722Z,51.65
2022-08-30T11:25:38.573Z,50.63
2022-08-30T11:26:35.745Z,51.20
2022-08-30T11:27:35.712Z,51.05
2022-08-30T11:28:35.711Z,52.89
2022-08-30T11:29:35.688Z,53.02
2022-08-30T11:30:35.724Z,54.04
2022-08-30T11:31:35.711Z,53.81
2022-08-30T11:32:35.666Z,53.09
2022-08-30T11:33:35.653Z,53.64
2022-08-30T11:34:35.630Z,51.82
2022-08-30T11:35:35.629Z,50.48
2022-08-30T11:36:37.932Z,50.33
2022-08-30T11:37:35.614Z,48.04
2022-08-30T11:38:35.574Z,49.63
2022-08-30T11:39:35.568Z,51.54
2022-08-30T11:40:35.577Z,51.20
2022-08-30T11:41:40.851Z,51.37
2022-08-30T11:42:35.913Z,51.45
2022-08-30T11:43:36.693Z,50.35
2022-08-30T11:44:35.530Z,50.70
2022-08-30T11:45:35.604Z,52.02
2022-08-30T11:46:35.505Z,51.54
2022-08-30T11:47:35.547Z,52.76
2022-08-30T11:48:35.476Z,52.57
2022-08-30T11:49:35.450Z,52.54
2022-08-30T11:50:35.467Z,52.64
2022-08-30T11:51:35.440Z,52.54
2022-08-30T11:52:35.458Z,52.47
2022-08-30T11:53:35.420Z,54.46
2022-08-30T11:54:35.443Z,54.16
2022-08-30T11:55:35.402Z,54.57
2022-08-30T11:56:35.475Z,54.27
2022-08-30T11:57:35.383Z,54.64
2022-08-30T11:58:35.390Z,54.69
2022-08-30T11:59:35.360Z,54.82
2022-08-30T12:00:35.473Z,55.66
2022-08-30T12:01:51.152Z,55.36
2022-08-30T12:02:37.504Z,55.11
2022-08-30T12:03:35.435Z,54.06
2022-08-30T12:04:35.317Z,54.04
2022-08-30T12:05:35.304Z,52.89
2022-08-30T12:06:35.290Z,51.77
2022-08-30T12:07:35.902Z,51.25
2022-08-30T12:08:36.108Z,51.97
2022-08-30T12:09:35.323Z,52.42
2022-08-30T12:10:35.281Z,53.02
2022-08-30T12:11:35.232Z,52.92
2022-08-30T12:12:35.194Z,52.39
2022-08-30T12:13:35.183Z,51.75
2022-08-30T12:14:35.182Z,51.15
2022-08-30T12:15:35.249Z,50.98
2022-08-30T12:16:35.260Z,51.84
2022-08-30T12:17:35.142Z,49.53
2022-08-30T12:18:35.151Z,49.80
2022-08-30T12:19:35.113Z,49.61
2022-08-30T12:20:35.146Z,50.23
2022-08-30T12:21:43.907Z,49.95
2022-08-30T12:22:35.282Z,49.55
2022-08-30T12:23:35.115Z,50.08
2022-08-30T12:24:35.185Z,49.53
2022-08-30T12:25:35.205Z,48.83
2022-08-30T12:26:35.058Z,48.99
2022-08-30T12:27:35.103Z,46.72
2022-08-30T12:28:35.070Z,48.49
2022-08-30T12:29:35.001Z,50.10
2022-08-30T12:30:35.030Z,50.23
2022-08-30T12:31:35.257Z,50.15
2022-08-30T12:32:35.068Z,51.15
2022-08-30T12:33:41.321Z,50.25
2022-08-30T12:34:35.966Z,50.85
2022-08-30T12:35:35.181Z,50.40
2022-08-30T12:36:35.125Z,50.48
2022-08-30T12:37:34.934Z,49.95
2022-08-30T12:38:34.944Z,49.33
2022-08-30T12:39:34.930Z,48.76
2022-08-30T12:40:35.011Z,49.21
2022-08-30T12:41:34.894Z,50.23
2022-08-30T12:46:42.908Z,49.06
2022-08-30T12:47:43.363Z,47.66
2022-08-30T12:48:42.819Z,48.46
2022-08-30T12:49:42.940Z,46.08
2022-08-30T12:50:42.720Z,47.74
2022-08-30T12:51:42.742Z,47.47
2022-08-30T12:52:42.728Z,47.86
2022-08-30T12:53:42.728Z,47.56
2022-08-30T12:54:42.725Z,46.92
2022-08-30T12:55:42.701Z,46.23
2022-08-30T12:56:49.934Z,45.95
2022-08-30T12:57:43.678Z,45.97
2022-08-30T12:58:42.628Z,46.84
2022-08-30T12:59:44.392Z,46.33
2022-08-30T13:00:42.875Z,46.13
2022-08-30T13:01:42.759Z,46.01
2022-08-30T13:02:42.646Z,45.51
2022-08-30T13:03:42.621Z,46.06
2022-08-30T13:04:42.561Z,44.67
2022-08-30T13:05:45.786Z,44.57
2022-08-30T13:06:42.541Z,45.56
2022-08-30T13:07:42.582Z,44.99
2022-08-30T13:08:42.523Z,45.11
2022-08-30T13:09:42.642Z,45.11
2022-08-30T13:10:42.530Z,46.11
2022-08-30T13:11:42.466Z,46.38
2022-08-30T13:12:42.472Z,47.45
2022-08-30T13:13:44.337Z,47.28
2022-08-30T13:14:43.771Z,47.35
2022-08-30T13:15:43.691Z,47.28
2022-08-30T13:16:45.454Z,47.20
2022-08-30T13:17:43.623Z,47.10
2022-08-30T13:18:43.574Z,49.36
2022-08-30T13:19:43.557Z,50.00
2022-08-30T13:20:43.521Z,50.43
2022-08-30T13:21:43.519Z,50.40
2022-08-30T13:22:43.492Z,50.15
2022-08-30T13:23:43.469Z,49.85
2022-08-30T13:24:43.462Z,48.38
2022-08-30T13:25:43.486Z,49.80
2022-08-30T13:26:43.455Z,50.30
2022-08-30T13:27:43.452Z,50.50
2022-08-30T13:28:43.417Z,49.33
2022-08-30T13:29:44.423Z,50.70
2022-08-30T13:30:43.469Z,49.38
2022-08-30T13:31:43.476Z,48.46
2022-08-30T13:32:43.409Z,48.19
2022-08-30T13:33:43.383Z,45.89
2022-08-30T13:34:43.393Z,46.06
2022-08-30T13:35:43.331Z,45.89
2022-08-30T13:36:44.826Z,45.89
2022-08-30T13:37:49.569Z,46.58
2022-08-30T13:38:45.323Z,46.19
2022-08-30T13:39:43.343Z,45.25
2022-08-30T13:40:43.335Z,44.57
2022-08-30T13:41:43.384Z,45.29
2022-08-30T13:42:43.240Z,45.31
2022-08-30T13:44:43.262Z,46.35
2022-08-30T13:45:43.465Z,46.35
2022-08-30T13:46:43.465Z,45.55
2022-08-30T13:47:43.375Z,45.65
2022-08-30T13:48:43.223Z,46.67
2022-08-30T13:49:43.824Z,47.37
2022-08-30T13:50:44.180Z,47.49
2022-08-30T13:51:58.117Z,48.36
2022-08-30T13:52:43.191Z,48.54
2022-08-30T13:53:58.522Z,47.64
2022-08-30T13:54:45.121Z,47.42
2022-08-30T13:55:43.259Z,46.72
2022-08-30T13:56:43.140Z,46.70
2022-08-30T13:57:58.382Z,46.80
2022-08-30T13:58:45.096Z,47.50
2022-08-30T13:59:43.072Z,47.30
2022-08-30T14:00:43.089Z,47.87
2022-08-30T14:02:48.797Z,47.38
2022-08-30T14:04:43.098Z,46.88
2022-08-30T14:06:00.474Z,46.19
2022-08-30T14:07:43.031Z,47.47
2022-08-30T14:08:45.278Z,46.20
2022-08-30T14:09:43.976Z,46.78
2022-08-30T14:10:47.163Z,45.61
2022-08-30T14:11:43.955Z,45.41
2022-08-30T14:13:08.181Z,47.72
2022-08-30T14:14:44.198Z,46.14
2022-08-30T14:15:42.879Z,46.31
2022-08-30T14:16:42.942Z,44.81
2022-08-30T14:17:42.882Z,45.15
2022-08-30T14:18:42.876Z,45.61
2022-08-30T14:19:42.874Z,45.71
2022-08-30T14:20:43.908Z,45.90
2022-08-30T14:21:43.115Z,46.33
2022-08-30T14:22:42.854Z,46.03
2022-08-30T14:23:42.855Z,46.31
2022-08-30T14:24:42.809Z,45.39
2022-08-30T14:25:42.820Z,45.49
2022-08-30T14:26:43.478Z,45.21
2022-08-30T14:27:42.862Z,45.23
2022-08-30T14:28:42.813Z,45.73
2022-08-30T14:29:43.122Z,45.93
2022-08-30T14:30:42.756Z,46.92
2022-08-30T14:31:42.795Z,48.07
2022-08-30T14:32:42.981Z,48.44
2022-08-30T14:33:42.708Z,48.71
2022-08-30T14:34:42.685Z,48.22
2022-08-30T14:35:42.685Z,48.52
2022-08-30T14:36:42.662Z,47.74
2022-08-30T14:37:42.702Z,48.58
2022-08-30T14:38:42.929Z,49.51
2022-08-30T14:39:42.619Z,48.61
2022-08-30T14:40:42.658Z,49.70
2022-08-30T14:41:43.625Z,50.02
2022-08-30T14:42:42.620Z,49.80
2022-08-30T14:43:42.628Z,49.48
2022-08-30T14:44:55.843Z,49.46
2022-08-30T14:45:42.611Z,48.07
2022-08-30T14:48:53.421Z,48.49
2022-08-30T14:48:59.983Z,49.88
2022-08-30T14:49:59.931Z,49.48
2022-08-30T14:51:00.039Z,48.56
2022-08-30T14:51:59.932Z,48.16
2022-08-30T14:52:59.955Z,48.54
2022-08-30T14:53:59.911Z,48.24
2022-08-30T14:55:05.268Z,47.54
2022-08-30T14:55:59.953Z,47.54
2022-08-30T14:57:00.945Z,47.44
2022-08-30T14:57:59.860Z,47.86
2022-08-30T14:58:59.793Z,47.86
2022-08-30T14:59:59.802Z,47.96
2022-08-30T15:00:59.906Z,47.47
2022-08-30T15:01:59.855Z,47.84
2022-08-30T15:02:59.814Z,46.53
2022-08-30T15:03:59.818Z,46.72
2022-08-30T15:04:59.874Z,46.13
2022-08-30T15:05:59.711Z,45.93
2022-08-30T15:06:59.692Z,47.32
2022-08-30T15:07:59.695Z,45.93
2022-08-30T15:09:00.006Z,46.33
2022-08-30T15:09:59.693Z,46.20
2022-08-30T15:10:59.666Z,47.50
2022-08-30T15:11:59.642Z,47.47
2022-08-30T15:12:59.633Z,46.19
2022-08-30T15:13:59.669Z,47.00
2022-08-30T15:14:59.611Z,46.13
2022-08-30T15:15:59.597Z,45.90
2022-08-30T15:16:59.570Z,45.90
2022-08-30T15:17:59.808Z,45.71
2022-08-30T15:18:59.561Z,45.53
2022-08-30T15:19:59.521Z,46.89
2022-08-30T15:20:59.513Z,47.49
2022-08-30T15:21:59.505Z,47.37
2022-08-30T15:22:59.496Z,45.78
2022-08-30T15:23:59.490Z,47.81
2022-08-30T15:24:59.492Z,47.71
2022-08-30T15:25:59.462Z,46.89
2022-08-30T15:26:59.728Z,46.57
2022-08-30T15:27:59.442Z,47.56
2022-08-30T15:28:59.435Z,47.56
2022-08-30T15:29:59.431Z,47.99
2022-08-30T15:30:59.525Z,48.71
2022-08-30T15:31:59.423Z,49.70
2022-08-30T15:32:59.391Z,48.98
2022-08-30T15:33:59.363Z,50.10
2022-08-30T15:34:59.398Z,50.08
2022-08-30T15:35:59.351Z,49.78
2022-08-30T15:36:59.337Z,49.38
2022-08-30T15:37:59.338Z,48.98
2022-08-30T15:38:59.323Z,49.38
2022-08-30T15:39:59.384Z,49.36
2022-08-30T15:40:59.306Z,47.96
2022-08-30T15:42:01.011Z,47.77
2022-08-30T15:42:59.348Z,47.66
2022-08-30T15:43:59.254Z,48.07
2022-08-30T15:44:59.329Z,47.77
2022-08-30T15:45:59.260Z,48.16
2022-08-30T15:46:59.295Z,48.56
2022-08-30T15:47:59.243Z,48.76
2022-08-30T15:48:59.228Z,49.48
2022-08-30T15:49:59.269Z,49.66
2022-08-30T15:50:59.186Z,48.66
2022-08-30T15:52:34.464Z,48.56
2022-08-30T15:52:59.491Z,47.47
2022-08-30T15:53:59.293Z,48.46
2022-08-30T15:54:59.565Z,49.36
2022-08-30T15:55:59.926Z,48.64
2022-08-30T15:56:59.750Z,48.74
2022-08-30T15:57:59.265Z,48.34
2022-08-30T15:58:59.117Z,47.64
2022-08-30T15:59:59.087Z,47.64
2022-08-30T16:00:59.358Z,47.64
2022-08-30T16:01:59.337Z,47.66
2022-08-30T16:02:59.145Z,48.46
2022-08-30T16:03:59.120Z,48.07
2022-08-30T16:04:59.075Z,48.66
2022-08-30T16:05:59.141Z,48.56
2022-08-30T16:06:59.252Z,48.76
2022-08-30T16:07:59.737Z,47.44
2022-08-30T16:08:58.997Z,47.64
2022-08-30T16:09:59.297Z,47.54
2022-08-30T16:10:59.384Z,47.74
2022-08-30T16:11:59.154Z,48.14
2022-08-30T16:12:59.064Z,48.96
2022-08-30T16:13:59.024Z,49.36
2022-08-30T16:14:58.988Z,49.85
2022-08-30T16:15:58.977Z,49.98
2022-08-30T16:16:58.953Z,50.57
2022-08-30T16:17:59.262Z,50.38
2022-08-30T16:18:58.962Z,50.38
2022-08-30T16:19:59.134Z,51.79
2022-08-30T16:20:59.024Z,52.12
2022-08-30T16:21:58.850Z,51.72
2022-08-30T16:22:58.883Z,51.89
2022-08-30T16:23:58.844Z,51.79
2022-08-30T16:24:58.850Z,51.82
2022-08-30T16:26:04.257Z,52.17
2022-08-30T16:26:58.858Z,53.81
2022-08-30T16:27:59.260Z,55.02
2022-08-30T16:28:58.831Z,53.81
2022-08-30T16:29:58.795Z,54.22
2022-08-30T16:30:58.901Z,54.71
2022-08-30T16:31:58.901Z,54.39
2022-08-30T16:32:58.747Z,54.71
2022-08-30T16:34:03.670Z,54.61
2022-08-30T16:34:58.712Z,54.84
2022-08-30T16:35:58.784Z,55.04
2022-08-30T16:36:58.719Z,55.34
2022-08-30T16:37:58.932Z,54.32
2022-08-30T16:38:58.689Z,54.11
2022-08-30T16:39:58.890Z,55.24
2022-08-30T16:40:58.723Z,55.07
2022-08-30T16:41:58.675Z,55.07
2022-08-30T16:42:58.725Z,56.07
2022-08-30T16:43:58.624Z,55.04
2022-08-30T16:44:58.638Z,54.91
2022-08-30T16:45:58.635Z,54.82
2022-08-30T16:46:58.704Z,54.91
2022-08-30T16:47:58.794Z,54.71
2022-08-30T16:48:58.750Z,54.22
2022-08-30T16:49:58.619Z,53.79
2022-08-30T16:50:59.153Z,54.79
2022-08-30T16:51:58.508Z,54.22
2022-08-30T16:52:58.497Z,53.79
2022-08-30T16:53:58.488Z,54.11
2022-08-30T16:54:58.473Z,54.54
2022-08-30T16:55:58.430Z,55.17
2022-08-30T16:56:58.415Z,55.24
2022-08-30T16:57:58.487Z,55.04
2022-08-30T16:59:02.613Z,55.14
2022-08-30T16:59:58.518Z,55.07
2022-08-30T17:00:58.444Z,54.57
2022-08-30T17:01:58.464Z,55.47
2022-08-30T17:02:58.426Z,55.57
2022-08-30T17:03:58.547Z,55.34
2022-08-30T17:04:58.346Z,54.57
2022-08-30T17:05:58.347Z,54.54
2022-08-30T17:06:58.734Z,55.14
2022-08-30T17:07:58.367Z,55.87
2022-08-30T17:08:58.277Z,55.17
2022-08-30T17:09:58.484Z,56.16
2022-08-30T17:10:58.264Z,55.87
2022-08-30T17:11:58.255Z,55.44
2022-08-30T17:12:58.253Z,54.24
2022-08-30T17:13:58.243Z,54.67
2022-08-30T17:14:58.220Z,54.54
2022-08-30T17:15:58.356Z,54.60
2022-08-30T17:16:58.186Z,55.32
2022-08-30T17:17:58.175Z,56.12
2022-08-30T17:18:59.887Z,55.59
2022-08-30T17:19:58.166Z,55.89
2022-08-30T17:20:58.166Z,55.59
2022-08-30T17:21:58.416Z,55.42
2022-08-30T17:22:58.118Z,55.72
2022-08-30T17:24:01.648Z,55.92
2022-08-30T17:24:58.096Z,55.72
2022-08-30T17:25:58.089Z,55.92
2022-08-30T17:26:58.280Z,55.55
2022-08-30T17:27:58.089Z,56.24
2022-08-30T17:28:58.164Z,55.77
2022-08-30T17:29:58.026Z,56.35
2022-08-30T17:30:58.077Z,55.57
2022-08-30T17:31:58.100Z,55.87
2022-08-30T17:32:57.998Z,56.40
2022-08-30T17:34:01.236Z,55.70
2022-08-30T17:34:57.988Z,56.10
2022-08-30T17:35:57.976Z,55.57
2022-08-30T17:36:57.939Z,56.00
2022-08-30T17:37:57.925Z,56.40
2022-08-30T17:38:57.935Z,55.70
2022-08-30T17:39:57.949Z,56.30
2022-08-30T17:40:57.898Z,56.63
2022-08-30T17:41:57.880Z,56.73
2022-08-30T17:42:57.886Z,56.93
2022-08-30T17:43:57.857Z,56.90
2022-08-30T17:45:01.250Z,55.70
2022-08-30T17:45:57.842Z,57.06
2022-08-30T17:46:57.899Z,56.83
2022-08-30T17:47:57.820Z,56.73
2022-08-30T17:49:01.247Z,56.23
2022-08-30T17:49:57.813Z,56.43
2022-08-30T17:50:57.816Z,55.75
2022-08-30T17:51:57.923Z,56.73
2022-08-30T17:52:57.753Z,56.56
2022-08-30T17:53:57.731Z,56.93
2022-08-30T17:54:57.741Z,56.85
2022-08-30T17:55:57.702Z,56.96
2022-08-30T17:56:57.694Z,56.85
2022-08-30T17:57:57.687Z,56.88
2022-08-30T17:58:57.694Z,57.48
2022-08-30T17:59:57.693Z,58.16
2022-08-30T18:00:57.701Z,57.76
2022-08-30T18:01:57.700Z,56.76
2022-08-30T18:02:57.917Z,56.65
2022-08-30T18:04:01.563Z,57.66
2022-08-30T18:04:58.169Z,57.26
2022-08-30T18:05:57.582Z,56.76
2022-08-30T18:06:57.623Z,57.46
2022-08-30T18:07:57.589Z,57.86
2022-08-30T18:08:57.560Z,57.46
2022-08-30T18:09:57.573Z,57.48
2022-08-30T18:10:57.526Z,57.48
2022-08-30T18:11:57.572Z,58.49
2022-08-30T18:12:57.503Z,58.09
2022-08-30T18:13:58.094Z,57.79
2022-08-30T18:14:57.475Z,58.09
2022-08-30T18:15:57.514Z,58.01
2022-08-30T18:16:57.480Z,58.22
2022-08-30T18:17:57.438Z,58.22
2022-08-30T18:18:57.697Z,58.22
2022-08-30T18:19:57.757Z,58.11
2022-08-30T18:20:57.408Z,58.51
2022-08-30T18:21:57.392Z,58.54
2022-08-30T18:22:57.384Z,58.54
2022-08-30T18:23:57.825Z,58.24
2022-08-30T18:25:02.128Z,58.14
2022-08-30T18:25:57.505Z,59.14
2022-08-30T18:26:57.387Z,59.38
2022-08-30T18:27:58.895Z,59.55
2022-08-30T18:28:57.315Z,58.94
2022-08-30T18:29:57.357Z,58.54
2022-08-30T18:30:57.372Z,59.58
2022-08-30T18:31:57.326Z,59.58
2022-08-30T18:32:57.284Z,59.38
2022-08-30T18:33:57.452Z,58.97
2022-08-30T18:34:57.262Z,58.77
2022-08-30T18:35:57.310Z,59.08
2022-08-30T18:36:57.248Z,59.08
2022-08-30T18:37:57.255Z,59.47
2022-08-30T18:38:57.199Z,59.10
2022-08-30T18:39:57.191Z,58.97
2022-08-30T18:40:57.218Z,59.10
2022-08-30T18:41:57.194Z,59.00
2022-08-30T18:42:57.181Z,59.30
2022-08-30T18:44:11.267Z,60.21
2022-08-30T18:44:57.145Z,59.41
2022-08-30T18:45:57.150Z,59.63
2022-08-30T18:46:57.352Z,60.53
2022-08-30T18:47:57.118Z,60.61
2022-08-30T18:48:57.105Z,59.43
2022-08-30T18:49:57.732Z,60.53
2022-08-30T18:50:57.249Z,60.44
2022-08-30T18:51:58.067Z,60.53
2022-08-30T18:52:57.085Z,60.41
2022-08-30T18:53:57.046Z,60.51
2022-08-30T18:54:57.065Z,60.21
2022-08-30T18:55:57.026Z,60.51
2022-08-30T18:56:57.034Z,61.34
2022-08-30T18:57:56.994Z,60.44
2022-08-30T18:58:57.019Z,60.64
2022-08-30T18:59:56.981Z,60.61
2022-08-30T19:00:57.129Z,60.64
2022-08-30T19:01:57.056Z,60.74
2022-08-30T19:02:56.937Z,61.21
2022-08-30T19:03:56.920Z,60.74
2022-08-30T19:04:56.914Z,60.74
2022-08-30T19:05:56.893Z,60.64
2022-08-30T19:06:56.927Z,60.33
2022-08-30T19:07:56.907Z,60.53
2022-08-30T19:08:57.639Z,60.94
2022-08-30T19:09:59.008Z,61.54
2022-08-30T19:11:01.397Z,60.44
2022-08-30T19:11:56.849Z,61.14
2022-08-30T19:12:56.815Z,60.84
2022-08-30T19:13:56.826Z,60.74
2022-08-30T19:14:56.807Z,61.04
2022-08-30T19:15:56.790Z,61.17
2022-08-30T19:16:56.819Z,61.27
2022-08-30T19:17:56.773Z,60.77
2022-08-30T19:18:56.759Z,61.57